Valparaiso, Chile
Current Conditions -  °F | °C
As of 6:00 PM on Thursday 27 Nov 2014 (Local Time) from SCVM Reporting Station
Clear Clear  
Wind Chill: 63°   Ceiling: Unl
Heat Index: 63°   Visibility: 6mi
Dew Point: 52°   Wind: 7mph
Humidity: 68%   Direction: 330°NNW
Pressure: 30"   Gusts: NA
Location:  33.04°S, 71.64°W
Report Text: SCVM 272200Z 33006KT CAVOK 17/11 Q1016
Loading
Personal Weather Stations






























Interactive Weather Map New forecast layout! Learn more

10-Day Weather Forecast

Advertisements
Track Severe Weather on mobile